Casper-Natrona County International Airport
KCPR : rendu visible

Aérodrome :











RETROUVEZ-NOUS SUR...

 
LOGIN :

S'inscrire | Disclaimer

   EN    FR    IT 

 









Légende :    VFR   VFR Marginal   IFR   IFR Intensif   IFR Très Intensif
Visi : 
Plafond : 
>= 8 km
>= 3000ft
5 à 8 km
1000 à 3000 ft
1500m à 5 km
500 à 1000 ft
800 à 1500m
200 à 500 ft
< 800m
< 200 ft
Symboles :   Orages  Brouillard  Fortes neiges  Fortes précipitations  Vent > 20 kt






- Altitude de l'aérodrome : 5350 ft
- Code IATA : CPR


KCPR - Casper-Natrona County International

DERNIER METAR :
  • 190353Z AUTO 31007KT 10SM CLR M15/M17 A3018 RMK AO2 SLP300 T11501172

METARs EXPIRÉS :
  • 190253Z 29006KT 10SM CLR M13/M17 A3016 RMK AO2 SLP295 T11331167 51008
  • 190153Z 26006KT 10SM CLR M11/M16 A3016 RMK AO2 SLP287 T11111156

TAF KCPR
Valide du 19 à 00h jusqu'au 20 à 00h UTC


182326Z 1900/1924 22008KT P6SM FEW200



MET'MAP, la Météo Aéronautique d'un coup d'oeil ! - Copyright ORBIFLY Décembre 2007 - Disclaimer

ORBIFLY MET'MAP TEAM :

Programmation & Développement : Alexandra Zaïnal
Sur une idée originale de : Baudouin d'Aumeries
Assistance à la programmation : Marc-Olivier Méhu
Soutien technique & logistique : Manuel Goepfert

Contact : metmap@orbifly.com




SOURCES & CREDITS :

   NOAA       Earth
Advisory